sensor_id;sensor_type;location;lat;lon;timestamp;temperature;humidity
11536;DHT22;5824;49.336;8.652;2023-02-26T00:00:16;0.90;1.00
11536;DHT22;5824;49.336;8.652;2023-02-26T00:02:45;0.50;1.00
11536;DHT22;5824;49.336;8.652;2023-02-26T00:05:12;0.50;1.00
11536;DHT22;5824;49.336;8.652;2023-02-26T00:07:38;0.60;1.00
11536;DHT22;5824;49.336;8.652;2023-02-26T00:10:06;0.70;1.00
11536;DHT22;5824;49.336;8.652;2023-02-26T00:12:32;0.70;1.00
11536;DHT22;5824;49.336;8.652;2023-02-26T00:14:58;0.70;1.00
11536;DHT22;5824;49.336;8.652;2023-02-26T00:17:33;0.80;1.00
11536;DHT22;5824;49.336;8.652;2023-02-26T00:20:01;0.80;1.00
11536;DHT22;5824;49.336;8.652;2023-02-26T00:22:27;0.80;1.00
11536;DHT22;5824;49.336;8.652;2023-02-26T00:24:53;0.70;1.00
11536;DHT22;5824;49.336;8.652;2023-02-26T00:27:18;0.70;1.00
11536;DHT22;5824;49.336;8.652;2023-02-26T00:29:44;1.20;1.00
11536;DHT22;5824;49.336;8.652;2023-02-26T00:32:10;0.70;1.00
11536;DHT22;5824;49.336;8.652;2023-02-26T00:34:36;0.60;1.00
11536;DHT22;5824;49.336;8.652;2023-02-26T00:37:30;0.60;1.00
11536;DHT22;5824;49.336;8.652;2023-02-26T00:43:05;0.60;1.00
11536;DHT22;5824;49.336;8.652;2023-02-26T00:48:11;0.60;1.00
11536;DHT22;5824;49.336;8.652;2023-02-26T00:50:46;0.50;1.00
11536;DHT22;5824;49.336;8.652;2023-02-26T00:53:33;0.40;1.00
11536;DHT22;5824;49.336;8.652;2023-02-26T00:56:00;0.30;1.00
11536;DHT22;5824;49.336;8.652;2023-02-26T00:58:26;0.30;1.00
11536;DHT22;5824;49.336;8.652;2023-02-26T01:00:51;0.30;1.00
11536;DHT22;5824;49.336;8.652;2023-02-26T01:03:17;0.30;1.00
11536;DHT22;5824;49.336;8.652;2023-02-26T01:05:43;0.20;1.00
11536;DHT22;5824;49.336;8.652;2023-02-26T01:08:37;0.20;1.00
11536;DHT22;5824;49.336;8.652;2023-02-26T01:11:05;0.00;1.00
11536;DHT22;5824;49.336;8.652;2023-02-26T01:13:30;0.00;1.00
11536;DHT22;5824;49.336;8.652;2023-02-26T01:16:04;0.00;1.00
11536;DHT22;5824;49.336;8.652;2023-02-26T01:18:51;-0.10;1.00
11536;DHT22;5824;49.336;8.652;2023-02-26T01:21:25;-0.10;1.00
11536;DHT22;5824;49.336;8.652;2023-02-26T01:23:53;0.20;1.00
11536;DHT22;5824;49.336;8.652;2023-02-26T01:26:22;-0.30;1.00
11536;DHT22;5824;49.336;8.652;2023-02-26T01:28:50;-0.40;1.00
11536;DHT22;5824;49.336;8.652;2023-02-26T01:34:05;-0.50;1.00
11536;DHT22;5824;49.336;8.652;2023-02-26T01:36:39;-0.50;1.00
11536;DHT22;5824;49.336;8.652;2023-02-26T01:41:53;-0.50;1.00
11536;DHT22;5824;49.336;8.652;2023-02-26T01:45:10;0.00;1.00
11536;DHT22;5824;49.336;8.652;2023-02-26T01:47:10;-0.10;1.00
11536;DHT22;5824;49.336;8.652;2023-02-26T01:49:38;0.20;1.00
11536;DHT22;5824;49.336;8.652;2023-02-26T01:54:56;-0.20;1.00
11536;DHT22;5824;49.336;8.652;2023-02-26T01:57:21;-0.20;1.00
11536;DHT22;5824;49.336;8.652;2023-02-26T01:59:49;-0.60;1.00
11536;DHT22;5824;49.336;8.652;2023-02-26T02:02:18;-0.30;1.00
11536;DHT22;5824;49.336;8.652;2023-02-26T02:04:45;-0.30;1.00
11536;DHT22;5824;49.336;8.652;2023-02-26T02:07:12;-0.20;1.00
11536;DHT22;5824;49.336;8.652;2023-02-26T02:09:38;-0.20;1.00
11536;DHT22;5824;49.336;8.652;2023-02-26T02:12:28;-0.20;1.00
11536;DHT22;5824;49.336;8.652;2023-02-26T02:15:11;-0.20;1.00
11536;DHT22;5824;49.336;8.652;2023-02-26T02:26:08;-0.30;1.00
11536;DHT22;5824;49.336;8.652;2023-02-26T02:29:02;-0.30;1.00
11536;DHT22;5824;49.336;8.652;2023-02-26T02:31:40;-0.40;1.00
11536;DHT22;5824;49.336;8.652;2023-02-26T02:34:15;-0.40;1.00
11536;DHT22;5824;49.336;8.652;2023-02-26T02:36:48;-0.40;1.00
11536;DHT22;5824;49.336;8.652;2023-02-26T02:39:29;0.10;1.00
11536;DHT22;5824;49.336;8.652;2023-02-26T02:44:31;-0.30;1.00
11536;DHT22;5824;49.336;8.652;2023-02-26T02:46:59;0.00;1.00
11536;DHT22;5824;49.336;8.652;2023-02-26T02:49:42;-0.40;1.00
11536;DHT22;5824;49.336;8.652;2023-02-26T02:52:37;-0.30;1.00
11536;DHT22;5824;49.336;8.652;2023-02-26T02:55:20;-0.30;1.00
11536;DHT22;5824;49.336;8.652;2023-02-26T02:57:57;-0.30;1.00
11536;DHT22;5824;49.336;8.652;2023-02-26T03:00:27;-0.30;1.00
11536;DHT22;5824;49.336;8.652;2023-02-26T03:08:23;-0.20;1.00
11536;DHT22;5824;49.336;8.652;2023-02-26T03:10:49;0.00;1.00
11536;DHT22;5824;49.336;8.652;2023-02-26T03:13:21;0.20;1.00
11536;DHT22;5824;49.336;8.652;2023-02-26T03:21:29;-0.20;1.00
11536;DHT22;5824;49.336;8.652;2023-02-26T03:24:07;-0.20;1.00
11536;DHT22;5824;49.336;8.652;2023-02-26T03:27:08;-0.60;1.00
11536;DHT22;5824;49.336;8.652;2023-02-26T03:32:42;-0.20;1.00
11536;DHT22;5824;49.336;8.652;2023-02-26T03:35:19;0.20;1.00
11536;DHT22;5824;49.336;8.652;2023-02-26T03:37:50;-0.20;1.00
11536;DHT22;5824;49.336;8.652;2023-02-26T03:40:46;-0.20;1.00
11536;DHT22;5824;49.336;8.652;2023-02-26T03:43:22;0.10;1.00
11536;DHT22;5824;49.336;8.652;2023-02-26T03:45:51;0.10;1.00
11536;DHT22;5824;49.336;8.652;2023-02-26T03:48:22;-0.30;1.00
11536;DHT22;5824;49.336;8.652;2023-02-26T03:50:50;0.10;1.00
11536;DHT22;5824;49.336;8.652;2023-02-26T03:53:21;0.10;1.00
11536;DHT22;5824;49.336;8.652;2023-02-26T03:56:16;-0.20;1.00
11536;DHT22;5824;49.336;8.652;2023-02-26T03:58:44;-0.20;1.00
11536;DHT22;5824;49.336;8.652;2023-02-26T04:01:14;-0.20;1.00
11536;DHT22;5824;49.336;8.652;2023-02-26T04:03:58;-0.30;1.00
11536;DHT22;5824;49.336;8.652;2023-02-26T04:06:26;-0.20;1.00
11536;DHT22;5824;49.336;8.652;2023-02-26T04:08:51;0.20;1.00
11536;DHT22;5824;49.336;8.652;2023-02-26T04:11:19;-0.20;1.00
11536;DHT22;5824;49.336;8.652;2023-02-26T04:13:46;0.10;1.00
11536;DHT22;5824;49.336;8.652;2023-02-26T04:16:13;-0.20;1.00
11536;DHT22;5824;49.336;8.652;2023-02-26T04:18:38;-0.20;1.00
11536;DHT22;5824;49.336;8.652;2023-02-26T04:21:05;-0.20;1.00
11536;DHT22;5824;49.336;8.652;2023-02-26T04:23:31;-0.20;1.00
11536;DHT22;5824;49.336;8.652;2023-02-26T04:25:56;-0.20;1.00
11536;DHT22;5824;49.336;8.652;2023-02-26T04:28:22;0.20;1.00
11536;DHT22;5824;49.336;8.652;2023-02-26T04:30:47;-0.20;1.00
11536;DHT22;5824;49.336;8.652;2023-02-26T04:33:13;0.20;1.00
11536;DHT22;5824;49.336;8.652;2023-02-26T04:35:40;-0.20;1.00
11536;DHT22;5824;49.336;8.652;2023-02-26T04:38:05;-0.20;1.00
11536;DHT22;5824;49.336;8.652;2023-02-26T04:40:31;0.20;1.00
11536;DHT22;5824;49.336;8.652;2023-02-26T04:45:22;-0.20;1.00
11536;DHT22;5824;49.336;8.652;2023-02-26T04:47:48;0.20;1.00
11536;DHT22;5824;49.336;8.652;2023-02-26T04:50:13;-0.20;1.00
11536;DHT22;5824;49.336;8.652;2023-02-26T04:52:39;-0.10;1.00
11536;DHT22;5824;49.336;8.652;2023-02-26T04:55:05;-0.20;1.00
11536;DHT22;5824;49.336;8.652;2023-02-26T04:57:32;-0.30;1.00
11536;DHT22;5824;49.336;8.652;2023-02-26T04:59:57;-0.30;1.00
11536;DHT22;5824;49.336;8.652;2023-02-26T05:02:24;0.10;1.00
11536;DHT22;5824;49.336;8.652;2023-02-26T05:04:49;-0.30;1.00
11536;DHT22;5824;49.336;8.652;2023-02-26T05:07:15;0.00;1.00
11536;DHT22;5824;49.336;8.652;2023-02-26T05:09:40;-0.40;1.00
11536;DHT22;5824;49.336;8.652;2023-02-26T05:12:06;-0.40;1.00
11536;DHT22;5824;49.336;8.652;2023-02-26T05:14:31;0.00;1.00
11536;DHT22;5824;49.336;8.652;2023-02-26T05:16:57;-0.40;1.00
11536;DHT22;5824;49.336;8.652;2023-02-26T05:19:22;1.30;1.00
11536;DHT22;5824;49.336;8.652;2023-02-26T05:21:48;-0.40;1.00
11536;DHT22;5824;49.336;8.652;2023-02-26T05:24:14;-0.20;1.00
11536;DHT22;5824;49.336;8.652;2023-02-26T05:26:40;-0.40;1.00
11536;DHT22;5824;49.336;8.652;2023-02-26T05:29:05;-0.10;1.00
11536;DHT22;5824;49.336;8.652;2023-02-26T05:31:31;-0.50;1.00
11536;DHT22;5824;49.336;8.652;2023-02-26T05:33:57;0.00;1.00
11536;DHT22;5824;49.336;8.652;2023-02-26T05:36:22;-0.50;1.00
11536;DHT22;5824;49.336;8.652;2023-02-26T05:38:48;-0.50;1.00
11536;DHT22;5824;49.336;8.652;2023-02-26T05:41:13;-0.50;1.00
11536;DHT22;5824;49.336;8.652;2023-02-26T05:43:39;-0.10;1.00
11536;DHT22;5824;49.336;8.652;2023-02-26T05:46:04;-0.50;1.00
11536;DHT22;5824;49.336;8.652;2023-02-26T05:50:56;-0.50;1.00
11536;DHT22;5824;49.336;8.652;2023-02-26T05:53:21;-0.60;1.00
11536;DHT22;5824;49.336;8.652;2023-02-26T05:55:47;-0.40;1.00
11536;DHT22;5824;49.336;8.652;2023-02-26T05:58:13;-0.60;1.00
11536;DHT22;5824;49.336;8.652;2023-02-26T06:00:39;-0.20;1.00
11536;DHT22;5824;49.336;8.652;2023-02-26T06:03:05;-0.60;1.00
11536;DHT22;5824;49.336;8.652;2023-02-26T06:05:30;-0.10;1.00
11536;DHT22;5824;49.336;8.652;2023-02-26T06:07:56;-0.60;1.00
11536;DHT22;5824;49.336;8.652;2023-02-26T06:10:21;-0.20;1.00
11536;DHT22;5824;49.336;8.652;2023-02-26T06:12:47;-0.20;1.00
11536;DHT22;5824;49.336;8.652;2023-02-26T06:15:12;-0.10;1.00
11536;DHT22;5824;49.336;8.652;2023-02-26T06:17:38;-0.50;1.00
11536;DHT22;5824;49.336;8.652;2023-02-26T06:20:04;-0.70;1.00
11536;DHT22;5824;49.336;8.652;2023-02-26T06:22:30;-0.50;1.00
11536;DHT22;5824;49.336;8.652;2023-02-26T06:24:56;0.00;1.00
11536;DHT22;5824;49.336;8.652;2023-02-26T06:27:22;-0.40;1.00
11536;DHT22;5824;49.336;8.652;2023-02-26T06:32:13;-0.20;1.00
11536;DHT22;5824;49.336;8.652;2023-02-26T06:34:39;-0.20;1.00
11536;DHT22;5824;49.336;8.652;2023-02-26T06:37:04;-0.20;1.00
11536;DHT22;5824;49.336;8.652;2023-02-26T06:39:30;0.30;1.00
11536;DHT22;5824;49.336;8.652;2023-02-26T06:41:55;-0.10;1.00
11536;DHT22;5824;49.336;8.652;2023-02-26T06:44:21;0.10;1.00
11536;DHT22;5824;49.336;8.652;2023-02-26T06:46:46;0.50;1.00
11536;DHT22;5824;49.336;8.652;2023-02-26T06:49:12;0.30;1.00
11536;DHT22;5824;49.336;8.652;2023-02-26T06:51:37;0.50;1.00
11536;DHT22;5824;49.336;8.652;2023-02-26T06:54:03;1.10;1.00
11536;DHT22;5824;49.336;8.652;2023-02-26T06:56:28;0.70;1.00
11536;DHT22;5824;49.336;8.652;2023-02-26T06:58:54;0.90;1.00
11536;DHT22;5824;49.336;8.652;2023-02-26T07:01:19;1.10;1.00
11536;DHT22;5824;49.336;8.652;2023-02-26T07:03:45;1.10;1.00
11536;DHT22;5824;49.336;8.652;2023-02-26T07:06:11;1.20;1.00
11536;DHT22;5824;49.336;8.652;2023-02-26T07:08:38;1.40;1.00
11536;DHT22;5824;49.336;8.652;2023-02-26T07:11:04;1.80;1.00
11536;DHT22;5824;49.336;8.652;2023-02-26T07:13:30;2.20;1.00
11536;DHT22;5824;49.336;8.652;2023-02-26T07:15:55;2.00;1.00
11536;DHT22;5824;49.336;8.652;2023-02-26T07:18:21;2.50;1.00
11536;DHT22;5824;49.336;8.652;2023-02-26T07:20:48;2.30;1.00
11536;DHT22;5824;49.336;8.652;2023-02-26T07:23:14;2.40;1.00
11536;DHT22;5824;49.336;8.652;2023-02-26T07:25:40;2.50;1.00
11536;DHT22;5824;49.336;8.652;2023-02-26T07:28:05;2.70;1.00
11536;DHT22;5824;49.336;8.652;2023-02-26T07:30:31;2.90;1.00
11536;DHT22;5824;49.336;8.652;2023-02-26T07:32:57;3.20;1.00
11536;DHT22;5824;49.336;8.652;2023-02-26T07:35:22;3.10;1.00
11536;DHT22;5824;49.336;8.652;2023-02-26T07:37:48;2.70;1.00
11536;DHT22;5824;49.336;8.652;2023-02-26T07:40:14;2.70;1.00
11536;DHT22;5824;49.336;8.652;2023-02-26T07:42:40;2.70;1.00
11536;DHT22;5824;49.336;8.652;2023-02-26T07:45:06;2.80;1.00
11536;DHT22;5824;49.336;8.652;2023-02-26T07:47:33;2.80;1.00
11536;DHT22;5824;49.336;8.652;2023-02-26T07:49:59;3.30;1.00
11536;DHT22;5824;49.336;8.652;2023-02-26T07:52:25;3.50;1.00
11536;DHT22;5824;49.336;8.652;2023-02-26T07:54:50;3.30;1.00
11536;DHT22;5824;49.336;8.652;2023-02-26T07:57:16;3.40;1.00
11536;DHT22;5824;49.336;8.652;2023-02-26T07:59:42;3.50;1.00
11536;DHT22;5824;49.336;8.652;2023-02-26T08:02:09;4.00;1.00
11536;DHT22;5824;49.336;8.652;2023-02-26T08:04:35;3.60;1.00
11536;DHT22;5824;49.336;8.652;2023-02-26T08:07:01;3.50;1.00
11536;DHT22;5824;49.336;8.652;2023-02-26T08:09:26;3.80;1.00
11536;DHT22;5824;49.336;8.652;2023-02-26T08:11:52;3.60;1.00
11536;DHT22;5824;49.336;8.652;2023-02-26T08:14:17;3.70;1.00
11536;DHT22;5824;49.336;8.652;2023-02-26T08:16:43;3.60;1.00
11536;DHT22;5824;49.336;8.652;2023-02-26T08:19:09;4.00;1.00
11536;DHT22;5824;49.336;8.652;2023-02-26T08:21:34;4.30;1.00
11536;DHT22;5824;49.336;8.652;2023-02-26T08:24:00;4.70;1.00
11536;DHT22;5824;49.336;8.652;2023-02-26T08:26:25;4.60;1.00
11536;DHT22;5824;49.336;8.652;2023-02-26T08:28:51;2.90;1.00
11536;DHT22;5824;49.336;8.652;2023-02-26T08:31:16;4.10;1.00
11536;DHT22;5824;49.336;8.652;2023-02-26T08:33:42;4.10;1.00
11536;DHT22;5824;49.336;8.652;2023-02-26T08:36:09;4.10;1.00
11536;DHT22;5824;49.336;8.652;2023-02-26T08:38:34;4.30;1.00
11536;DHT22;5824;49.336;8.652;2023-02-26T08:41:00;4.70;1.00
11536;DHT22;5824;49.336;8.652;2023-02-26T08:43:25;4.70;1.00
11536;DHT22;5824;49.336;8.652;2023-02-26T08:45:53;5.00;1.00
11536;DHT22;5824;49.336;8.652;2023-02-26T08:48:19;5.60;1.00
11536;DHT22;5824;49.336;8.652;2023-02-26T08:50:44;5.20;1.00
11536;DHT22;5824;49.336;8.652;2023-02-26T08:53:09;5.50;1.00
11536;DHT22;5824;49.336;8.652;2023-02-26T08:55:35;6.00;1.00
11536;DHT22;5824;49.336;8.652;2023-02-26T08:58:01;6.40;1.00
11536;DHT22;5824;49.336;8.652;2023-02-26T09:00:26;6.60;1.00
11536;DHT22;5824;49.336;8.652;2023-02-26T09:02:52;6.60;1.00
11536;DHT22;5824;49.336;8.652;2023-02-26T09:05:17;7.70;1.00
11536;DHT22;5824;49.336;8.652;2023-02-26T09:07:43;9.80;1.00
11536;DHT22;5824;49.336;8.652;2023-02-26T09:10:10;12.50;1.00
11536;DHT22;5824;49.336;8.652;2023-02-26T09:12:36;12.50;1.00
11536;DHT22;5824;49.336;8.652;2023-02-26T09:15:03;13.10;1.00
11536;DHT22;5824;49.336;8.652;2023-02-26T09:17:30;14.40;1.00
11536;DHT22;5824;49.336;8.652;2023-02-26T09:19:56;14.70;1.00
11536;DHT22;5824;49.336;8.652;2023-02-26T09:22:22;13.60;1.00
11536;DHT22;5824;49.336;8.652;2023-02-26T09:24:47;14.50;1.00
11536;DHT22;5824;49.336;8.652;2023-02-26T09:27:13;15.80;1.00
11536;DHT22;5824;49.336;8.652;2023-02-26T09:29:38;16.70;1.00
11536;DHT22;5824;49.336;8.652;2023-02-26T09:32:04;17.60;1.00
11536;DHT22;5824;49.336;8.652;2023-02-26T09:34:36;17.10;1.00
11536;DHT22;5824;49.336;8.652;2023-02-26T09:37:06;15.60;1.00
11536;DHT22;5824;49.336;8.652;2023-02-26T09:39:33;15.60;1.00
11536;DHT22;5824;49.336;8.652;2023-02-26T09:42:29;17.00;1.00
11536;DHT22;5824;49.336;8.652;2023-02-26T09:44:56;18.40;1.00
11536;DHT22;5824;49.336;8.652;2023-02-26T09:47:30;18.60;1.00
11536;DHT22;5824;49.336;8.652;2023-02-26T09:50:21;17.60;1.00
11536;DHT22;5824;49.336;8.652;2023-02-26T09:55:36;14.20;1.00
11536;DHT22;5824;49.336;8.652;2023-02-26T09:58:17;14.90;1.00
11536;DHT22;5824;49.336;8.652;2023-02-26T10:00:52;15.00;1.00
11536;DHT22;5824;49.336;8.652;2023-02-26T10:06:14;16.30;1.00
11536;DHT22;5824;49.336;8.652;2023-02-26T10:14:14;19.10;1.00
11536;DHT22;5824;49.336;8.652;2023-02-26T10:16:45;16.70;1.00
11536;DHT22;5824;49.336;8.652;2023-02-26T10:19:17;16.10;1.00
11536;DHT22;5824;49.336;8.652;2023-02-26T10:22:04;16.70;1.00
11536;DHT22;5824;49.336;8.652;2023-02-26T10:24:41;17.10;1.00
11536;DHT22;5824;49.336;8.652;2023-02-26T10:27:13;18.50;1.00
11536;DHT22;5824;49.336;8.652;2023-02-26T10:30:03;18.90;1.00
11536;DHT22;5824;49.336;8.652;2023-02-26T10:32:42;19.80;1.00
11536;DHT22;5824;49.336;8.652;2023-02-26T10:35:14;19.20;1.00
11536;DHT22;5824;49.336;8.652;2023-02-26T10:40:21;18.60;1.00
11536;DHT22;5824;49.336;8.652;2023-02-26T10:42:53;19.50;1.00
11536;DHT22;5824;49.336;8.652;2023-02-26T10:48:24;18.60;1.00
11536;DHT22;5824;49.336;8.652;2023-02-26T10:50:55;15.90;1.00
11536;DHT22;5824;49.336;8.652;2023-02-26T10:53:22;14.30;1.00
11536;DHT22;5824;49.336;8.652;2023-02-26T10:56:08;15.10;1.00
11536;DHT22;5824;49.336;8.652;2023-02-26T10:58:35;15.40;1.00
11536;DHT22;5824;49.336;8.652;2023-02-26T11:01:01;15.10;1.00
11536;DHT22;5824;49.336;8.652;2023-02-26T11:04:03;15.10;1.00
11536;DHT22;5824;49.336;8.652;2023-02-26T11:06:37;15.10;1.00
11536;DHT22;5824;49.336;8.652;2023-02-26T11:09:04;14.50;1.00
11536;DHT22;5824;49.336;8.652;2023-02-26T11:11:42;13.80;1.00
11536;DHT22;5824;49.336;8.652;2023-02-26T11:14:09;13.20;1.00
11536;DHT22;5824;49.336;8.652;2023-02-26T11:16:42;12.00;1.00
11536;DHT22;5824;49.336;8.652;2023-02-26T11:19:12;11.10;1.00
11536;DHT22;5824;49.336;8.652;2023-02-26T11:21:40;10.50;1.00
11536;DHT22;5824;49.336;8.652;2023-02-26T11:26:38;9.60;1.00
11536;DHT22;5824;49.336;8.652;2023-02-26T11:29:19;9.40;1.00
11536;DHT22;5824;49.336;8.652;2023-02-26T11:32:04;9.40;1.00
11536;DHT22;5824;49.336;8.652;2023-02-26T11:34:30;9.60;1.00
11536;DHT22;5824;49.336;8.652;2023-02-26T11:36:58;9.80;1.00
11536;DHT22;5824;49.336;8.652;2023-02-26T11:39:29;9.60;1.00
11536;DHT22;5824;49.336;8.652;2023-02-26T11:41:59;9.50;1.00
11536;DHT22;5824;49.336;8.652;2023-02-26T11:47:04;9.70;1.00
11536;DHT22;5824;49.336;8.652;2023-02-26T11:49:30;10.00;1.00
11536;DHT22;5824;49.336;8.652;2023-02-26T11:54:49;8.10;1.00
11536;DHT22;5824;49.336;8.652;2023-02-26T11:57:23;8.00;1.00
11536;DHT22;5824;49.336;8.652;2023-02-26T11:59:52;7.90;1.00
11536;DHT22;5824;49.336;8.652;2023-02-26T12:02:20;7.90;1.00
11536;DHT22;5824;49.336;8.652;2023-02-26T12:04:51;7.70;1.00
11536;DHT22;5824;49.336;8.652;2023-02-26T12:07:18;7.50;1.00
11536;DHT22;5824;49.336;8.652;2023-02-26T12:09:44;7.30;1.00
11536;DHT22;5824;49.336;8.652;2023-02-26T12:20:23;7.40;1.00
11536;DHT22;5824;49.336;8.652;2023-02-26T12:28:57;7.60;1.00
11536;DHT22;5824;49.336;8.652;2023-02-26T12:42:49;8.00;1.00
11536;DHT22;5824;49.336;8.652;2023-02-26T12:45:35;8.50;1.00
11536;DHT22;5824;49.336;8.652;2023-02-26T12:51:21;9.00;1.00
11536;DHT22;5824;49.336;8.652;2023-02-26T13:02:07;10.50;1.00
11536;DHT22;5824;49.336;8.652;2023-02-26T13:18:47;10.80;1.00
11536;DHT22;5824;49.336;8.652;2023-02-26T13:21:30;13.30;1.00
11536;DHT22;5824;49.336;8.652;2023-02-26T13:26:54;14.90;1.00
11536;DHT22;5824;49.336;8.652;2023-02-26T13:29:24;13.30;1.00
11536;DHT22;5824;49.336;8.652;2023-02-26T13:31:58;11.60;1.00
11536;DHT22;5824;49.336;8.652;2023-02-26T13:34:43;10.40;1.00
11536;DHT22;5824;49.336;8.652;2023-02-26T13:37:30;9.30;1.00
11536;DHT22;5824;49.336;8.652;2023-02-26T13:42:51;9.00;1.00
11536;DHT22;5824;49.336;8.652;2023-02-26T13:45:34;8.90;1.00
11536;DHT22;5824;49.336;8.652;2023-02-26T13:50:48;10.20;1.00
11536;DHT22;5824;49.336;8.652;2023-02-26T13:55:51;13.50;1.00
11536;DHT22;5824;49.336;8.652;2023-02-26T14:00:56;12.60;1.00
11536;DHT22;5824;49.336;8.652;2023-02-26T14:08:44;13.20;1.00
11536;DHT22;5824;49.336;8.652;2023-02-26T14:11:38;11.80;1.00
11536;DHT22;5824;49.336;8.652;2023-02-26T14:19:43;9.80;1.00
11536;DHT22;5824;49.336;8.652;2023-02-26T14:24:55;9.00;1.00
11536;DHT22;5824;49.336;8.652;2023-02-26T14:27:38;9.20;1.00
11536;DHT22;5824;49.336;8.652;2023-02-26T14:35:31;8.90;1.00
11536;DHT22;5824;49.336;8.652;2023-02-26T14:38:02;8.50;1.00
11536;DHT22;5824;49.336;8.652;2023-02-26T14:40:31;8.70;1.00
11536;DHT22;5824;49.336;8.652;2023-02-26T14:43:01;8.70;1.00
11536;DHT22;5824;49.336;8.652;2023-02-26T14:45:36;8.80;1.00
11536;DHT22;5824;49.336;8.652;2023-02-26T14:48:10;8.90;1.00
11536;DHT22;5824;49.336;8.652;2023-02-26T15:01:46;9.00;1.00
11536;DHT22;5824;49.336;8.652;2023-02-26T15:09:42;7.60;1.00
11536;DHT22;5824;49.336;8.652;2023-02-26T15:15:12;7.30;1.00
11536;DHT22;5824;49.336;8.652;2023-02-26T15:20:49;6.80;1.00
11536;DHT22;5824;49.336;8.652;2023-02-26T15:25:59;6.60;1.00
11536;DHT22;5824;49.336;8.652;2023-02-26T15:28:30;6.80;1.00
11536;DHT22;5824;49.336;8.652;2023-02-26T15:30:58;6.90;1.00
11536;DHT22;5824;49.336;8.652;2023-02-26T15:33:25;6.70;1.00
11536;DHT22;5824;49.336;8.652;2023-02-26T15:35:53;6.50;1.00
11536;DHT22;5824;49.336;8.652;2023-02-26T15:38:19;6.50;1.00
11536;DHT22;5824;49.336;8.652;2023-02-26T15:40:46;6.60;1.00
11536;DHT22;5824;49.336;8.652;2023-02-26T15:43:15;6.80;1.00
11536;DHT22;5824;49.336;8.652;2023-02-26T15:45:52;6.80;1.00
11536;DHT22;5824;49.336;8.652;2023-02-26T15:48:23;6.60;1.00
11536;DHT22;5824;49.336;8.652;2023-02-26T15:50:57;6.80;1.00
11536;DHT22;5824;49.336;8.652;2023-02-26T15:53:35;6.60;1.00
11536;DHT22;5824;49.336;8.652;2023-02-26T15:56:05;6.70;1.00
11536;DHT22;5824;49.336;8.652;2023-02-26T15:58:41;6.90;1.00
11536;DHT22;5824;49.336;8.652;2023-02-26T16:01:21;6.80;1.00
11536;DHT22;5824;49.336;8.652;2023-02-26T16:03:49;6.20;1.00
11536;DHT22;5824;49.336;8.652;2023-02-26T16:06:18;6.00;1.00
11536;DHT22;5824;49.336;8.652;2023-02-26T16:08:44;5.80;1.00
11536;DHT22;5824;49.336;8.652;2023-02-26T16:11:11;5.90;1.00
11536;DHT22;5824;49.336;8.652;2023-02-26T16:13:39;5.50;1.00
11536;DHT22;5824;49.336;8.652;2023-02-26T16:16:23;5.40;1.00
11536;DHT22;5824;49.336;8.652;2023-02-26T16:18:50;5.40;1.00
11536;DHT22;5824;49.336;8.652;2023-02-26T16:21:30;5.30;1.00
11536;DHT22;5824;49.336;8.652;2023-02-26T16:23:58;5.20;1.00
11536;DHT22;5824;49.336;8.652;2023-02-26T16:26:34;5.30;1.00
11536;DHT22;5824;49.336;8.652;2023-02-26T16:29:06;5.40;1.00
11536;DHT22;5824;49.336;8.652;2023-02-26T16:31:34;5.60;1.00
11536;DHT22;5824;49.336;8.652;2023-02-26T16:39:44;5.00;1.00
11536;DHT22;5824;49.336;8.652;2023-02-26T16:42:15;5.10;1.00
11536;DHT22;5824;49.336;8.652;2023-02-26T16:44:49;5.20;1.00
11536;DHT22;5824;49.336;8.652;2023-02-26T16:47:15;4.90;1.00
11536;DHT22;5824;49.336;8.652;2023-02-26T16:49:41;4.70;1.00
11536;DHT22;5824;49.336;8.652;2023-02-26T16:52:13;4.70;1.00
11536;DHT22;5824;49.336;8.652;2023-02-26T16:54:41;5.10;1.00
11536;DHT22;5824;49.336;8.652;2023-02-26T16:57:17;4.90;1.00
11536;DHT22;5824;49.336;8.652;2023-02-26T16:59:48;4.50;1.00
11536;DHT22;5824;49.336;8.652;2023-02-26T17:02:19;4.40;1.00
11536;DHT22;5824;49.336;8.652;2023-02-26T17:04:50;4.90;1.00
11536;DHT22;5824;49.336;8.652;2023-02-26T17:07:34;4.50;1.00
11536;DHT22;5824;49.336;8.652;2023-02-26T17:10:18;4.50;1.00
11536;DHT22;5824;49.336;8.652;2023-02-26T17:12:49;4.50;1.00
11536;DHT22;5824;49.336;8.652;2023-02-26T17:15:26;4.50;1.00
11536;DHT22;5824;49.336;8.652;2023-02-26T17:17:52;4.50;1.00
11536;DHT22;5824;49.336;8.652;2023-02-26T17:20:21;4.60;1.00
11536;DHT22;5824;49.336;8.652;2023-02-26T17:22:47;4.40;1.00
11536;DHT22;5824;49.336;8.652;2023-02-26T17:25:15;4.30;1.00
11536;DHT22;5824;49.336;8.652;2023-02-26T17:27:41;4.30;1.00
11536;DHT22;5824;49.336;8.652;2023-02-26T17:30:08;4.50;1.00
11536;DHT22;5824;49.336;8.652;2023-02-26T17:32:36;4.10;1.00
11536;DHT22;5824;49.336;8.652;2023-02-26T17:35:01;3.90;1.00
11536;DHT22;5824;49.336;8.652;2023-02-26T17:37:32;3.90;1.00
11536;DHT22;5824;49.336;8.652;2023-02-26T17:39:58;4.20;1.00
11536;DHT22;5824;49.336;8.652;2023-02-26T17:42:24;3.80;1.00
11536;DHT22;5824;49.336;8.652;2023-02-26T17:44:49;3.70;1.00
11536;DHT22;5824;49.336;8.652;2023-02-26T17:47:20;3.60;1.00
11536;DHT22;5824;49.336;8.652;2023-02-26T17:49:46;3.50;1.00
11536;DHT22;5824;49.336;8.652;2023-02-26T17:52:13;3.50;1.00
11536;DHT22;5824;49.336;8.652;2023-02-26T17:54:38;3.40;1.00
11536;DHT22;5824;49.336;8.652;2023-02-26T17:57:05;3.90;1.00
11536;DHT22;5824;49.336;8.652;2023-02-26T17:59:30;4.80;1.00
11536;DHT22;5824;49.336;8.652;2023-02-26T18:01:56;3.70;1.00
11536;DHT22;5824;49.336;8.652;2023-02-26T18:04:21;3.30;1.00
11536;DHT22;5824;49.336;8.652;2023-02-26T18:06:47;3.30;1.00
11536;DHT22;5824;49.336;8.652;2023-02-26T18:09:13;3.20;1.00
11536;DHT22;5824;49.336;8.652;2023-02-26T18:14:07;3.20;1.00
11536;DHT22;5824;49.336;8.652;2023-02-26T18:16:39;3.20;1.00
11536;DHT22;5824;49.336;8.652;2023-02-26T18:19:06;3.10;1.00
11536;DHT22;5824;49.336;8.652;2023-02-26T18:21:32;3.20;1.00
11536;DHT22;5824;49.336;8.652;2023-02-26T18:23:59;3.10;1.00
11536;DHT22;5824;49.336;8.652;2023-02-26T18:26:27;3.10;1.00
11536;DHT22;5824;49.336;8.652;2023-02-26T18:28:55;3.00;1.00
11536;DHT22;5824;49.336;8.652;2023-02-26T18:31:23;3.00;1.00
11536;DHT22;5824;49.336;8.652;2023-02-26T18:33:51;3.00;1.00
11536;DHT22;5824;49.336;8.652;2023-02-26T18:36:24;3.00;1.00
11536;DHT22;5824;49.336;8.652;2023-02-26T18:38:54;3.00;1.00
11536;DHT22;5824;49.336;8.652;2023-02-26T18:41:22;2.90;1.00
11536;DHT22;5824;49.336;8.652;2023-02-26T18:43:48;3.30;1.00
11536;DHT22;5824;49.336;8.652;2023-02-26T18:46:13;2.90;1.00
11536;DHT22;5824;49.336;8.652;2023-02-26T18:48:39;2.90;1.00
11536;DHT22;5824;49.336;8.652;2023-02-26T18:51:04;2.80;1.00
11536;DHT22;5824;49.336;8.652;2023-02-26T18:53:31;2.70;1.00
11536;DHT22;5824;49.336;8.652;2023-02-26T18:55:58;2.70;1.00
11536;DHT22;5824;49.336;8.652;2023-02-26T18:58:24;2.70;1.00
11536;DHT22;5824;49.336;8.652;2023-02-26T19:00:50;2.60;1.00
11536;DHT22;5824;49.336;8.652;2023-02-26T19:03:15;2.60;1.00
11536;DHT22;5824;49.336;8.652;2023-02-26T19:05:41;2.60;1.00
11536;DHT22;5824;49.336;8.652;2023-02-26T19:08:07;2.60;1.00
11536;DHT22;5824;49.336;8.652;2023-02-26T19:10:33;2.50;1.00
11536;DHT22;5824;49.336;8.652;2023-02-26T19:12:59;2.50;1.00
11536;DHT22;5824;49.336;8.652;2023-02-26T19:15:24;2.50;1.00
11536;DHT22;5824;49.336;8.652;2023-02-26T19:17:50;2.40;1.00
11536;DHT22;5824;49.336;8.652;2023-02-26T19:20:16;2.60;1.00
11536;DHT22;5824;49.336;8.652;2023-02-26T19:22:42;2.30;1.00
11536;DHT22;5824;49.336;8.652;2023-02-26T19:25:09;2.30;1.00
11536;DHT22;5824;49.336;8.652;2023-02-26T19:27:35;2.30;1.00
11536;DHT22;5824;49.336;8.652;2023-02-26T19:30:01;2.40;1.00
11536;DHT22;5824;49.336;8.652;2023-02-26T19:32:28;2.30;1.00
11536;DHT22;5824;49.336;8.652;2023-02-26T19:34:53;2.60;1.00